createdAt,value
2023-05-11T00:01:54.829Z,61.04
2023-05-11T00:04:26.465Z,61.07
2023-05-11T00:06:57.926Z,60.79
2023-05-11T00:09:29.639Z,60.68
2023-05-11T00:11:59.413Z,60.89
2023-05-11T00:14:30.934Z,61.38
2023-05-11T00:17:02.307Z,61.61
2023-05-11T00:19:33.914Z,61.98
2023-05-11T00:22:05.580Z,62.52
2023-05-11T00:24:35.490Z,62.48
2023-05-11T00:27:07.475Z,62.52
2023-05-11T00:29:38.905Z,62.59
2023-05-11T00:32:10.710Z,62.50
2023-05-11T00:34:40.447Z,62.53
2023-05-11T00:37:11.994Z,62.90
2023-05-11T00:39:43.789Z,62.91
2023-05-11T00:42:15.289Z,62.91
2023-05-11T00:44:47.496Z,63.03
2023-05-11T00:47:19.343Z,63.41
2023-05-11T00:49:50.952Z,64.00
2023-05-11T00:52:20.757Z,64.04
2023-05-11T00:54:52.496Z,64.07
2023-05-11T00:57:22.729Z,64.04
2023-05-11T00:59:54.379Z,64.29
2023-05-11T01:02:26.683Z,64.27
2023-05-11T01:04:58.270Z,64.61
2023-05-11T01:07:30.411Z,64.82
2023-05-11T01:10:02.068Z,65.05
2023-05-11T01:12:37.782Z,65.13
2023-05-11T01:15:12.616Z,65.34
2023-05-11T01:17:47.589Z,65.53
2023-05-11T01:20:22.205Z,65.77
2023-05-11T01:23:12.720Z,65.89
2023-05-11T01:26:04.950Z,66.16
2023-05-11T01:29:04.391Z,66.37
2023-05-11T01:31:36.337Z,66.58
2023-05-11T01:34:11.475Z,66.88
2023-05-11T01:36:45.922Z,66.60
2023-05-11T01:39:17.680Z,66.62
2023-05-11T01:41:49.692Z,66.62
2023-05-11T01:44:21.089Z,66.67
2023-05-11T01:46:52.612Z,66.83
2023-05-11T01:49:24.181Z,67.08
2023-05-11T01:51:55.618Z,67.20
2023-05-11T01:54:27.168Z,67.54
2023-05-11T01:56:59.065Z,67.91
2023-05-11T01:59:31.196Z,68.16
2023-05-11T02:02:02.738Z,68.13
2023-05-11T02:04:32.574Z,68.28
2023-05-11T02:07:04.298Z,68.29
2023-05-11T02:09:36.390Z,68.18
2023-05-11T02:12:11.016Z,68.29
2023-05-11T02:14:43.075Z,68.37
2023-05-11T02:17:14.461Z,68.36
2023-05-11T02:19:46.200Z,68.26
2023-05-11T02:22:18.246Z,68.14
2023-05-11T02:24:49.996Z,67.99
2023-05-11T02:27:21.971Z,67.94
2023-05-11T02:29:53.779Z,67.91
2023-05-11T02:32:23.961Z,67.73
2023-05-11T02:34:58.739Z,67.59
2023-05-11T02:37:30.857Z,66.92
2023-05-11T02:40:04.270Z,66.63
2023-05-11T02:42:38.242Z,66.35
2023-05-11T02:45:11.320Z,66.22
2023-05-11T02:47:46.996Z,66.48
2023-05-11T02:50:20.138Z,66.44
2023-05-11T02:52:52.870Z,66.48
2023-05-11T02:55:24.553Z,66.77
2023-05-11T02:57:55.935Z,66.58
2023-05-11T03:00:27.939Z,66.51
2023-05-11T03:03:00.392Z,66.53
2023-05-11T03:05:31.924Z,66.50
2023-05-11T03:08:03.426Z,66.36
2023-05-11T03:10:33.575Z,66.28
2023-05-11T03:13:05.451Z,66.33
2023-05-11T03:15:37.112Z,66.38
2023-05-11T03:18:09.798Z,66.37
2023-05-11T03:20:42.329Z,66.20
2023-05-11T03:23:14.041Z,66.02
2023-05-11T03:25:46.192Z,65.85
2023-05-11T03:28:17.846Z,65.88
2023-05-11T03:30:57.709Z,65.79
2023-05-11T03:33:29.542Z,65.57
2023-05-11T03:36:02.897Z,65.48
2023-05-11T03:38:32.834Z,65.45
2023-05-11T03:41:04.895Z,65.01
2023-05-11T03:43:38.019Z,64.81
2023-05-11T03:46:09.486Z,64.44
2023-05-11T03:48:41.484Z,63.92
2023-05-11T03:51:13.149Z,63.45
2023-05-11T03:53:45.551Z,63.08
2023-05-11T03:56:15.341Z,62.93
2023-05-11T03:58:46.813Z,62.22
2023-05-11T04:01:18.248Z,62.27
2023-05-11T04:03:54.054Z,62.12
2023-05-11T04:06:27.326Z,60.90
2023-05-11T04:09:06.451Z,60.90
2023-05-11T04:11:40.684Z,60.69
2023-05-11T04:14:12.241Z,60.40
2023-05-11T04:16:43.557Z,59.71
2023-05-11T04:19:16.689Z,59.09
2023-05-11T04:21:48.169Z,58.34
2023-05-11T04:24:19.985Z,58.35
2023-05-11T04:26:51.192Z,58.15
2023-05-11T04:29:22.731Z,57.46
2023-05-11T04:31:55.123Z,56.39
2023-05-11T04:34:26.980Z,55.55
2023-05-11T04:36:58.851Z,54.03
2023-05-11T04:39:31.103Z,53.39
2023-05-11T04:42:02.514Z,52.48
2023-05-11T04:44:34.413Z,51.97
2023-05-11T04:47:05.951Z,51.69
2023-05-11T04:49:37.612Z,51.30
2023-05-11T04:52:08.009Z,51.24
2023-05-11T04:54:40.681Z,51.44
2023-05-11T04:57:12.318Z,51.64
2023-05-11T04:59:44.246Z,51.24
2023-05-11T05:02:15.952Z,51.41
2023-05-11T05:04:47.449Z,50.90
2023-05-11T05:07:17.749Z,50.64
2023-05-11T05:09:49.271Z,50.31
2023-05-11T05:12:21.129Z,49.63
2023-05-11T05:14:53.332Z,50.09
2023-05-11T05:17:24.918Z,49.72
2023-05-11T05:19:58.473Z,48.67
2023-05-11T05:22:29.952Z,48.57
2023-05-11T05:25:01.406Z,48.33
2023-05-11T05:27:35.035Z,48.25
2023-05-11T05:30:13.332Z,48.23
2023-05-11T05:32:45.070Z,47.56
2023-05-11T05:35:16.685Z,47.59
2023-05-11T05:37:50.816Z,47.53
2023-05-11T05:40:22.897Z,47.33
2023-05-11T05:42:59.748Z,46.26
2023-05-11T05:45:31.661Z,45.63
2023-05-11T05:48:06.849Z,45.06
2023-05-11T05:50:42.075Z,44.55
2023-05-11T05:53:14.636Z,43.72
2023-05-11T05:55:46.907Z,41.89
2023-05-11T05:58:18.915Z,39.72
2023-05-11T06:00:50.664Z,39.81
2023-05-11T06:03:23.004Z,39.31
2023-05-11T06:05:54.687Z,38.92
2023-05-11T06:08:26.481Z,38.85
2023-05-11T06:10:56.928Z,38.23
2023-05-11T06:13:28.447Z,37.80
2023-05-11T06:15:58.439Z,38.10
2023-05-11T06:18:34.020Z,38.47
2023-05-11T06:21:08.349Z,38.90
2023-05-11T06:23:40.280Z,38.57
2023-05-11T06:26:10.544Z,37.01
2023-05-11T06:28:43.561Z,37.01
2023-05-11T06:31:18.895Z,36.73
2023-05-11T06:33:51.396Z,36.96
2023-05-11T06:36:26.386Z,36.31
2023-05-11T06:38:58.885Z,35.95
2023-05-11T06:41:31.448Z,34.89
2023-05-11T06:44:03.117Z,35.07
2023-05-11T06:46:41.083Z,35.06
2023-05-11T06:49:13.668Z,34.39
2023-05-11T06:51:43.862Z,34.60
2023-05-11T06:54:16.138Z,34.02
2023-05-11T06:56:47.699Z,33.77
2023-05-11T06:59:19.581Z,33.66
2023-05-11T07:01:51.167Z,32.78
2023-05-11T07:04:22.881Z,32.44
2023-05-11T07:06:55.202Z,32.45
2023-05-11T07:09:26.740Z,32.85
2023-05-11T07:11:58.610Z,32.78
2023-05-11T07:14:30.380Z,32.66
2023-05-11T07:17:02.065Z,32.61
2023-05-11T07:19:33.068Z,32.36
2023-05-11T07:22:07.925Z,32.70
2023-05-11T07:24:39.617Z,32.46
2023-05-11T07:27:11.657Z,32.56
2023-05-11T07:29:44.554Z,32.39
2023-05-11T07:32:16.358Z,32.35
2023-05-11T07:34:46.365Z,32.12
2023-05-11T07:37:18.540Z,32.22
2023-05-11T07:39:50.039Z,32.12
2023-05-11T07:42:21.566Z,31.74
2023-05-11T07:44:53.013Z,31.74
2023-05-11T07:47:25.453Z,32.19
2023-05-11T07:49:57.693Z,32.40
2023-05-11T07:52:29.192Z,32.03
2023-05-11T07:55:01.300Z,32.23
2023-05-11T07:57:32.841Z,32.18
2023-05-11T08:00:08.196Z,32.39
2023-05-11T08:02:44.271Z,32.15
2023-05-11T08:05:15.983Z,31.89
2023-05-11T08:07:46.242Z,31.92
2023-05-11T08:10:17.943Z,31.72
2023-05-11T08:12:48.730Z,31.72
2023-05-11T08:15:21.326Z,31.64
2023-05-11T08:17:52.845Z,31.68
2023-05-11T08:20:24.422Z,31.51
2023-05-11T08:22:56.041Z,31.48
2023-05-11T08:25:25.838Z,31.55
2023-05-11T08:27:58.056Z,31.12
2023-05-11T08:30:29.940Z,31.14
2023-05-11T08:32:59.826Z,30.88
2023-05-11T08:35:32.014Z,30.84
2023-05-11T08:38:03.745Z,31.07
2023-05-11T08:40:35.422Z,31.29
2023-05-11T08:43:07.516Z,31.24
2023-05-11T08:45:38.648Z,31.08
2023-05-11T08:48:11.700Z,31.42
2023-05-11T08:50:43.110Z,30.82
2023-05-11T08:53:14.910Z,30.79
2023-05-11T08:55:46.918Z,30.98
2023-05-11T08:58:22.446Z,31.66
2023-05-11T09:00:55.481Z,30.49
2023-05-11T09:03:26.911Z,30.11
2023-05-11T09:05:59.122Z,29.81
2023-05-11T09:08:30.860Z,29.84
2023-05-11T09:11:01.152Z,29.92
2023-05-11T09:13:32.855Z,30.15
2023-05-11T09:16:02.822Z,30.36
2023-05-11T09:18:34.653Z,30.39
2023-05-11T09:21:07.422Z,30.06
2023-05-11T09:23:39.372Z,30.22
2023-05-11T09:26:17.208Z,30.22
2023-05-11T09:29:02.989Z,29.86
2023-05-11T09:31:43.395Z,29.80
2023-05-11T09:34:19.082Z,29.43
2023-05-11T09:36:51.683Z,29.44
2023-05-11T09:39:37.840Z,29.91
2023-05-11T09:42:18.357Z,30.28
2023-05-11T09:44:50.146Z,30.61
2023-05-11T09:47:22.680Z,30.75
2023-05-11T09:49:54.902Z,30.94
2023-05-11T09:52:26.586Z,31.00
2023-05-11T09:54:58.230Z,31.27
2023-05-11T09:57:31.171Z,30.78
2023-05-11T10:00:05.396Z,30.89
2023-05-11T10:02:43.976Z,31.19
2023-05-11T10:05:16.253Z,31.15
2023-05-11T10:07:49.199Z,31.09
2023-05-11T10:10:20.769Z,30.96
2023-05-11T10:12:52.360Z,30.90
2023-05-11T10:15:25.696Z,30.57
2023-05-11T10:18:04.510Z,31.01
2023-05-11T10:20:36.419Z,30.42
2023-05-11T10:23:08.509Z,29.91
2023-05-11T10:25:41.939Z,29.48
2023-05-11T10:28:14.126Z,29.34
2023-05-11T10:30:46.312Z,29.09
2023-05-11T10:33:18.180Z,28.81
2023-05-11T10:35:51.041Z,28.69
2023-05-11T10:38:23.967Z,28.75
2023-05-11T10:40:56.669Z,28.98
2023-05-11T10:43:55.851Z,29.15
2023-05-11T10:46:37.400Z,29.42
2023-05-11T10:49:22.774Z,29.57
2023-05-11T10:52:29.610Z,29.74
2023-05-11T10:55:10.971Z,30.16
2023-05-11T10:57:51.749Z,30.31
2023-05-11T11:00:55.841Z,30.21
2023-05-11T11:03:27.634Z,30.34
2023-05-11T11:06:00.894Z,30.08
2023-05-11T11:08:33.860Z,30.13
2023-05-11T11:11:06.634Z,30.19
2023-05-11T11:13:44.351Z,30.11
2023-05-11T11:16:16.810Z,30.25
2023-05-11T11:18:48.729Z,30.03
2023-05-11T11:21:18.657Z,30.09
2023-05-11T11:23:53.168Z,30.06
2023-05-11T11:26:50.970Z,30.07
2023-05-11T11:29:22.576Z,29.96
2023-05-11T11:31:52.518Z,29.93
2023-05-11T11:34:39.976Z,30.07
2023-05-11T11:37:13.635Z,29.86
2023-05-11T11:40:13.807Z,29.76
2023-05-11T11:42:46.536Z,29.51
2023-05-11T11:45:31.784Z,29.31
2023-05-11T11:48:17.513Z,29.15
2023-05-11T11:50:50.197Z,28.83
2023-05-11T11:54:05.091Z,28.68
2023-05-11T11:56:46.759Z,28.50
2023-05-11T11:59:19.175Z,28.29
2023-05-11T12:01:54.885Z,28.23
2023-05-11T12:04:58.225Z,27.82
2023-05-11T12:07:33.014Z,28.19
2023-05-11T12:10:06.348Z,28.36
2023-05-11T12:12:37.804Z,28.15
2023-05-11T12:15:23.374Z,28.42
2023-05-11T12:17:55.902Z,28.57
2023-05-11T12:20:27.405Z,28.70
2023-05-11T12:22:59.350Z,28.61
2023-05-11T12:25:31.025Z,28.39
2023-05-11T12:28:02.533Z,28.27
2023-05-11T12:30:34.941Z,28.38
2023-05-11T12:33:06.822Z,28.70
2023-05-11T12:35:40.786Z,28.97
2023-05-11T12:38:13.802Z,29.05
2023-05-11T12:40:50.119Z,29.11
2023-05-11T12:43:22.837Z,29.13
2023-05-11T12:45:54.603Z,29.44
2023-05-11T12:48:24.605Z,29.59
2023-05-11T12:50:57.109Z,29.90
2023-05-11T12:53:29.021Z,29.91
2023-05-11T12:56:04.914Z,30.07
2023-05-11T12:58:41.997Z,29.95
2023-05-11T13:01:13.619Z,29.92
2023-05-11T13:03:47.589Z,29.88
2023-05-11T13:06:22.091Z,29.98
2023-05-11T13:08:54.467Z,29.89
2023-05-11T13:11:27.019Z,29.95
2023-05-11T13:13:59.472Z,30.03
2023-05-11T13:16:32.502Z,30.09
2023-05-11T13:19:05.121Z,30.18
2023-05-11T13:21:37.275Z,30.14
2023-05-11T13:24:07.654Z,30.10
2023-05-11T13:26:39.461Z,29.93
2023-05-11T13:29:11.524Z,29.80
2023-05-11T13:31:50.512Z,29.13
2023-05-11T13:34:22.429Z,28.53
2023-05-11T13:36:54.292Z,28.25
2023-05-11T13:39:25.952Z,27.96
2023-05-11T13:41:57.496Z,28.05
2023-05-11T13:44:29.734Z,28.03
2023-05-11T13:47:01.345Z,27.77
2023-05-11T13:49:32.241Z,27.57
2023-05-11T13:52:03.918Z,27.68
2023-05-11T13:54:36.050Z,27.07
2023-05-11T13:57:08.569Z,26.75
2023-05-11T13:59:40.013Z,26.57
2023-05-11T14:02:11.972Z,26.06
2023-05-11T14:04:43.692Z,25.61
2023-05-11T14:07:14.456Z,25.77
2023-05-11T14:09:48.143Z,25.81
2023-05-11T14:12:21.088Z,25.68
2023-05-11T14:14:53.076Z,25.78
2023-05-11T14:17:25.253Z,25.87
2023-05-11T14:19:56.693Z,26.30
2023-05-11T14:22:28.724Z,26.65
2023-05-11T14:25:00.238Z,26.84
2023-05-11T14:27:32.455Z,27.07
2023-05-11T14:30:04.274Z,27.40
2023-05-11T14:32:35.984Z,27.71
2023-05-11T14:35:06.161Z,27.93
2023-05-11T14:37:38.150Z,28.41
2023-05-11T14:40:11.479Z,28.53
2023-05-11T14:42:43.162Z,28.74
2023-05-11T14:45:13.668Z,29.01
2023-05-11T14:47:45.371Z,29.13
2023-05-11T14:50:17.130Z,29.33
2023-05-11T14:52:48.723Z,29.37
2023-05-11T14:55:20.779Z,29.38
2023-05-11T14:57:52.952Z,29.32
2023-05-11T15:00:23.315Z,29.41
2023-05-11T15:02:54.957Z,29.46
2023-05-11T15:05:27.535Z,29.58
2023-05-11T15:07:59.883Z,29.67
2023-05-11T15:10:31.641Z,29.88
2023-05-11T15:13:01.380Z,29.84
2023-05-11T15:15:32.788Z,30.07
2023-05-11T15:18:04.230Z,30.11
2023-05-11T15:20:38.810Z,30.42
2023-05-11T15:23:10.514Z,30.68
2023-05-11T15:25:40.322Z,30.66
2023-05-11T15:28:12.685Z,30.81
2023-05-11T15:30:44.184Z,30.77
2023-05-11T15:33:16.618Z,31.00
2023-05-11T15:35:50.490Z,31.22
2023-05-11T15:38:22.134Z,31.32
2023-05-11T15:40:53.638Z,31.19
2023-05-11T15:43:25.131Z,31.35
2023-05-11T15:45:56.612Z,31.28
2023-05-11T15:48:28.111Z,31.28
2023-05-11T15:51:01.026Z,31.24
2023-05-11T15:53:32.630Z,31.06
2023-05-11T15:56:04.031Z,31.07
2023-05-11T15:58:35.793Z,31.21
2023-05-11T16:01:06.450Z,31.46
2023-05-11T16:03:38.391Z,31.50
2023-05-11T16:06:11.441Z,31.40
2023-05-11T16:08:45.239Z,31.52
2023-05-11T16:11:19.055Z,31.63
2023-05-11T16:13:50.835Z,31.63
2023-05-11T16:16:22.518Z,31.68
2023-05-11T16:18:52.327Z,31.84
2023-05-11T16:21:24.706Z,32.22
2023-05-11T16:23:56.196Z,32.34
2023-05-11T16:26:28.321Z,32.29
2023-05-11T16:29:00.018Z,32.37
2023-05-11T16:31:31.588Z,32.43
2023-05-11T16:34:03.077Z,32.31
2023-05-11T16:36:34.986Z,32.18
2023-05-11T16:39:04.936Z,32.14
2023-05-11T16:41:36.424Z,32.10
2023-05-11T16:44:07.786Z,32.20
2023-05-11T16:46:39.488Z,32.27
2023-05-11T16:49:09.457Z,32.30
2023-05-11T16:51:41.071Z,32.27
2023-05-11T16:54:15.524Z,32.35
2023-05-11T16:56:47.800Z,32.32
2023-05-11T16:59:19.345Z,32.34
2023-05-11T17:01:51.061Z,32.42
2023-05-11T17:04:22.846Z,32.54
2023-05-11T17:06:54.647Z,32.57
2023-05-11T17:09:28.192Z,32.57
2023-05-11T17:11:59.843Z,32.64
2023-05-11T17:14:31.672Z,32.76
2023-05-11T17:17:07.227Z,32.93
2023-05-11T17:19:38.679Z,33.03
2023-05-11T17:22:10.316Z,33.14
2023-05-11T17:24:41.786Z,33.21
2023-05-11T17:27:13.382Z,33.30
2023-05-11T17:29:47.061Z,33.22
2023-05-11T17:32:18.645Z,33.35
2023-05-11T17:34:50.491Z,33.36
2023-05-11T17:37:31.045Z,33.29
2023-05-11T17:40:03.773Z,33.00
2023-05-11T17:42:35.863Z,32.91
2023-05-11T17:45:09.007Z,33.04
2023-05-11T17:47:40.748Z,33.13
2023-05-11T17:50:11.176Z,33.15
2023-05-11T17:52:43.290Z,33.40
2023-05-11T17:55:15.193Z,33.64
2023-05-11T17:57:48.625Z,33.81
2023-05-11T18:00:22.197Z,33.68
2023-05-11T18:02:53.949Z,33.59
2023-05-11T18:05:33.328Z,33.38
2023-05-11T18:08:14.352Z,33.24
2023-05-11T18:10:45.909Z,33.13
2023-05-11T18:13:18.019Z,32.98
2023-05-11T18:15:50.000Z,32.98
2023-05-11T18:18:22.887Z,32.99
2023-05-11T18:20:55.202Z,32.94
2023-05-11T18:23:28.514Z,33.03
2023-05-11T18:25:59.990Z,33.05
2023-05-11T18:28:31.508Z,33.08
2023-05-11T18:31:03.197Z,33.03
2023-05-11T18:33:34.921Z,33.68
2023-05-11T18:36:07.272Z,34.32
2023-05-11T18:38:38.789Z,34.71
2023-05-11T18:41:10.930Z,34.80
2023-05-11T18:43:43.807Z,34.92
2023-05-11T18:46:15.239Z,35.08
2023-05-11T18:48:46.804Z,35.29
2023-05-11T18:51:19.784Z,35.59
2023-05-11T18:53:51.592Z,35.85
2023-05-11T18:56:22.538Z,35.91
2023-05-11T18:58:54.061Z,35.57
2023-05-11T19:01:30.537Z,35.40
2023-05-11T19:04:12.469Z,35.43
2023-05-11T19:06:44.753Z,35.33
2023-05-11T19:09:16.246Z,35.07
2023-05-11T19:11:48.309Z,34.89
2023-05-11T19:14:19.742Z,34.79
2023-05-11T19:16:51.210Z,34.94
2023-05-11T19:19:22.925Z,34.99
2023-05-11T19:21:54.432Z,34.99
2023-05-11T19:24:25.925Z,35.03
2023-05-11T19:27:06.629Z,34.97
2023-05-11T19:29:39.626Z,34.98
2023-05-11T19:32:11.278Z,35.18
2023-05-11T19:34:41.121Z,35.32
2023-05-11T19:37:13.093Z,35.72
2023-05-11T19:39:42.816Z,35.75
2023-05-11T19:42:15.847Z,35.42
2023-05-11T19:47:20.048Z,35.40
2023-05-11T19:49:51.760Z,35.54
2023-05-11T19:52:21.584Z,35.70
2023-05-11T19:54:53.078Z,35.71
2023-05-11T19:57:26.495Z,35.75
2023-05-11T19:59:58.158Z,35.71
2023-05-11T20:02:29.757Z,35.77
2023-05-11T20:04:59.918Z,35.80
2023-05-11T20:07:32.345Z,35.96
2023-05-11T20:10:03.983Z,36.00
2023-05-11T20:12:33.877Z,36.06
2023-05-11T20:15:05.656Z,36.02
2023-05-11T20:17:37.143Z,36.04
2023-05-11T20:20:10.061Z,36.08
2023-05-11T20:22:41.817Z,36.17
2023-05-11T20:25:18.403Z,36.26
2023-05-11T20:27:51.545Z,36.53
2023-05-11T20:30:23.248Z,36.75
2023-05-11T20:35:28.352Z,37.12
2023-05-11T20:37:59.808Z,37.19
2023-05-11T20:40:31.818Z,37.14
2023-05-11T20:43:04.030Z,37.26
2023-05-11T20:45:35.965Z,37.32
2023-05-11T20:48:08.201Z,37.22
2023-05-11T20:50:40.615Z,37.15
2023-05-11T20:53:12.129Z,37.23
2023-05-11T20:55:42.049Z,37.27
2023-05-11T20:58:13.771Z,37.26
2023-05-11T21:00:43.923Z,37.40
2023-05-11T21:03:15.512Z,37.52
2023-05-11T21:05:45.417Z,38.05
2023-05-11T21:08:17.765Z,38.22
2023-05-11T21:10:49.165Z,38.29
2023-05-11T21:13:21.332Z,38.40
2023-05-11T21:15:50.994Z,38.59
2023-05-11T21:18:22.525Z,38.77
2023-05-11T21:20:53.955Z,38.97
2023-05-11T21:23:25.570Z,39.19
2023-05-11T21:25:57.325Z,39.26
2023-05-11T21:28:27.200Z,39.19
2023-05-11T21:30:58.733Z,39.14
2023-05-11T21:33:30.280Z,39.05
2023-05-11T21:36:03.246Z,39.04
2023-05-11T21:38:36.924Z,39.09
2023-05-11T21:41:08.561Z,39.04
2023-05-11T21:43:40.036Z,39.10
2023-05-11T21:46:11.499Z,39.41
2023-05-11T21:48:43.219Z,39.43
2023-05-11T21:51:14.634Z,39.53
2023-05-11T21:53:46.654Z,39.70
2023-05-11T21:56:18.168Z,39.80
2023-05-11T21:58:49.700Z,39.91
2023-05-11T22:01:21.458Z,40.11
2023-05-11T22:03:53.479Z,40.22
2023-05-11T22:06:23.339Z,40.48
2023-05-11T22:08:54.916Z,40.51
2023-05-11T22:11:26.313Z,40.77
2023-05-11T22:13:57.895Z,40.87
2023-05-11T22:16:29.477Z,40.99
2023-05-11T22:19:01.208Z,41.10
2023-05-11T22:21:31.069Z,41.17
2023-05-11T22:24:02.519Z,41.22
2023-05-11T22:26:34.362Z,41.27
2023-05-11T22:29:06.292Z,41.37
2023-05-11T22:31:37.954Z,41.43
2023-05-11T22:34:09.683Z,41.49
2023-05-11T22:36:41.173Z,41.64
2023-05-11T22:39:12.696Z,41.75
2023-05-11T22:41:44.348Z,41.87
2023-05-11T22:44:15.918Z,42.16
2023-05-11T22:46:47.412Z,42.23
2023-05-11T22:49:17.786Z,42.32
2023-05-11T22:51:49.186Z,42.30
2023-05-11T22:54:21.615Z,42.42
2023-05-11T22:56:53.092Z,42.60
2023-05-11T22:59:24.706Z,42.85
2023-05-11T23:02:01.931Z,42.96
2023-05-11T23:04:34.106Z,43.04
2023-05-11T23:07:07.971Z,43.27
2023-05-11T23:09:39.569Z,43.45
2023-05-11T23:12:11.856Z,43.36
2023-05-11T23:14:44.158Z,43.54
2023-05-11T23:17:15.905Z,43.58
2023-05-11T23:19:47.595Z,43.70
2023-05-11T23:22:17.589Z,43.80
2023-05-11T23:24:49.124Z,43.71
2023-05-11T23:27:20.649Z,43.79
2023-05-11T23:29:52.315Z,43.83
2023-05-11T23:32:23.732Z,43.85
2023-05-11T23:34:55.386Z,43.92
2023-05-11T23:37:26.980Z,44.13
2023-05-11T23:39:58.478Z,44.49
2023-05-11T23:42:30.704Z,44.80
2023-05-11T23:45:04.741Z,45.02
2023-05-11T23:47:36.616Z,44.91
2023-05-11T23:50:10.088Z,44.76
2023-05-11T23:52:41.553Z,44.78
2023-05-11T23:55:13.832Z,44.80
2023-05-11T23:57:45.513Z,44.71
